createdAt,value
2024-05-09T00:03:00.288Z,3.29
2024-05-09T00:06:08.249Z,3.31
2024-05-09T00:09:14.575Z,3.23
2024-05-09T00:12:31.971Z,3.21
2024-05-09T00:15:40.810Z,3.13
2024-05-09T00:18:47.102Z,3.01
2024-05-09T00:21:53.445Z,2.97
2024-05-09T00:25:02.090Z,2.92
2024-05-09T00:28:12.681Z,2.75
2024-05-09T00:31:23.035Z,2.69
2024-05-09T00:34:33.912Z,2.56
2024-05-09T00:37:40.255Z,2.47
2024-05-09T00:40:48.020Z,2.47
2024-05-09T00:43:54.446Z,2.52
2024-05-09T00:47:00.882Z,2.46
2024-05-09T00:50:15.483Z,2.37
2024-05-09T00:53:27.178Z,2.56
2024-05-09T00:56:38.203Z,2.59
2024-05-09T00:59:47.794Z,2.53
2024-05-09T01:02:55.862Z,2.53
2024-05-09T01:06:10.384Z,2.52
2024-05-09T01:09:23.149Z,2.45
2024-05-09T01:12:36.811Z,2.43
2024-05-09T01:15:58.092Z,2.43
2024-05-09T01:19:08.045Z,2.50
2024-05-09T01:22:14.405Z,2.54
2024-05-09T01:25:21.937Z,2.47
2024-05-09T01:28:28.251Z,2.50
2024-05-09T01:31:35.652Z,2.53
2024-05-09T01:34:41.838Z,2.66
2024-05-09T01:37:47.985Z,2.70
2024-05-09T01:40:54.716Z,2.70
2024-05-09T01:44:01.833Z,2.68
2024-05-09T01:47:10.029Z,2.58
2024-05-09T01:50:25.308Z,2.50
2024-05-09T01:53:40.018Z,2.43
2024-05-09T01:56:46.201Z,2.41
2024-05-09T01:59:52.432Z,2.34
2024-05-09T02:02:58.802Z,2.35
2024-05-09T02:06:09.889Z,2.31
2024-05-09T02:09:20.121Z,2.21
2024-05-09T02:12:34.565Z,2.21
2024-05-09T02:15:55.964Z,2.23
2024-05-09T02:19:02.602Z,2.23
2024-05-09T02:22:13.351Z,2.10
2024-05-09T02:25:21.341Z,2.19
2024-05-09T02:28:27.502Z,2.19
2024-05-09T02:31:35.773Z,2.03
2024-05-09T02:34:48.474Z,1.89
2024-05-09T02:37:59.367Z,1.93
2024-05-09T02:41:12.297Z,1.98
2024-05-09T02:44:20.146Z,2.00
2024-05-09T02:47:36.055Z,2.20
2024-05-09T02:50:48.639Z,2.21
2024-05-09T02:54:00.044Z,2.09
2024-05-09T02:57:08.042Z,2.08
2024-05-09T03:00:22.810Z,1.99
2024-05-09T03:03:37.402Z,1.96
2024-05-09T03:06:47.855Z,2.07
2024-05-09T03:13:18.955Z,2.38
2024-05-09T03:16:25.201Z,2.40
2024-05-09T03:19:36.376Z,2.45
2024-05-09T03:22:50.784Z,2.62
2024-05-09T03:26:04.300Z,2.95
2024-05-09T03:29:11.814Z,3.35
2024-05-09T03:32:18.321Z,3.22
2024-05-09T03:35:25.823Z,3.80
2024-05-09T03:38:35.714Z,4.59
2024-05-09T03:41:47.429Z,4.63
2024-05-09T03:44:55.768Z,5.18
2024-05-09T03:48:04.319Z,6.20
2024-05-09T03:51:12.122Z,6.43
2024-05-09T03:54:18.668Z,6.27
2024-05-09T03:57:24.954Z,7.26
2024-05-09T04:00:38.734Z,8.53
2024-05-09T04:03:50.744Z,8.82
2024-05-09T04:07:06.466Z,8.59
2024-05-09T04:10:21.191Z,8.40
2024-05-09T04:13:34.108Z,8.83
2024-05-09T04:16:44.079Z,9.05
2024-05-09T04:19:51.975Z,9.83
2024-05-09T04:22:58.355Z,10.70
2024-05-09T04:26:05.059Z,12.17
2024-05-09T04:29:13.748Z,12.08
2024-05-09T04:32:23.862Z,11.86
2024-05-09T04:35:30.406Z,11.82
2024-05-09T04:38:37.049Z,11.41
2024-05-09T04:41:46.497Z,11.32
2024-05-09T04:44:58.250Z,11.56
2024-05-09T04:48:06.643Z,12.38
2024-05-09T04:51:14.172Z,12.91
2024-05-09T04:54:30.508Z,13.25
2024-05-09T04:57:43.219Z,12.83
2024-05-09T05:00:52.845Z,12.83
2024-05-09T05:04:04.631Z,13.02
2024-05-09T05:07:13.052Z,13.29
2024-05-09T05:10:25.443Z,13.64
2024-05-09T05:13:44.596Z,14.05
2024-05-09T05:16:53.363Z,14.11
2024-05-09T05:20:01.485Z,14.48
2024-05-09T05:23:14.480Z,14.43
2024-05-09T05:26:22.139Z,13.08
2024-05-09T05:29:32.082Z,13.62
2024-05-09T05:32:41.457Z,13.71
2024-05-09T05:35:48.833Z,14.38
2024-05-09T05:38:56.097Z,14.13
2024-05-09T05:42:05.324Z,14.47
2024-05-09T05:45:14.664Z,15.09
2024-05-09T05:48:23.625Z,15.16
2024-05-09T05:51:33.257Z,15.09
2024-05-09T05:54:39.526Z,15.19
2024-05-09T05:57:49.131Z,15.03
2024-05-09T06:00:59.887Z,14.92
2024-05-09T06:04:07.542Z,15.44
2024-05-09T06:07:16.970Z,15.69
2024-05-09T06:10:30.388Z,15.73
2024-05-09T06:13:48.773Z,15.81
2024-05-09T06:16:58.063Z,15.67
2024-05-09T06:20:09.103Z,15.64
2024-05-09T06:23:20.440Z,15.40
2024-05-09T06:26:28.546Z,15.72
2024-05-09T06:29:39.063Z,15.89
2024-05-09T06:32:47.868Z,15.64
2024-05-09T06:35:59.637Z,15.71
2024-05-09T06:39:05.867Z,16.09
2024-05-09T06:42:16.355Z,16.16
2024-05-09T06:45:25.019Z,15.74
2024-05-09T06:48:37.632Z,15.20
2024-05-09T06:51:44.764Z,15.05
2024-05-09T06:54:52.103Z,14.46
2024-05-09T06:58:04.976Z,14.28
2024-05-09T07:01:12.795Z,13.83
2024-05-09T07:04:19.793Z,13.26
2024-05-09T07:07:27.677Z,13.01
2024-05-09T07:10:37.350Z,13.16
2024-05-09T07:13:45.809Z,13.10
2024-05-09T07:16:53.804Z,12.70
2024-05-09T07:20:02.340Z,12.75
2024-05-09T07:23:15.869Z,12.84
2024-05-09T07:26:24.035Z,13.12
2024-05-09T07:29:34.772Z,13.47
2024-05-09T07:32:50.011Z,13.42
2024-05-09T07:35:57.144Z,13.68
2024-05-09T07:39:06.176Z,13.63
2024-05-09T07:42:16.386Z,13.50
2024-05-09T07:45:44.970Z,13.40
2024-05-09T07:55:31.746Z,13.73
2024-05-09T07:58:41.180Z,13.97
2024-05-09T08:01:48.954Z,14.10
2024-05-09T08:04:56.254Z,14.08
2024-05-09T08:08:06.860Z,14.32
2024-05-09T08:11:18.001Z,14.50
2024-05-09T08:14:25.317Z,14.37
2024-05-09T08:17:35.441Z,14.30
2024-05-09T08:20:45.933Z,14.72
2024-05-09T08:23:54.141Z,14.80
2024-05-09T08:27:03.458Z,14.99
2024-05-09T08:30:18.984Z,15.08
2024-05-09T08:33:32.407Z,14.48
2024-05-09T08:36:42.141Z,14.44
2024-05-09T08:39:56.132Z,14.28
2024-05-09T08:43:06.159Z,14.10
2024-05-09T08:46:18.878Z,13.94
2024-05-09T08:49:29.156Z,14.06
2024-05-09T08:52:36.527Z,14.02
2024-05-09T08:55:44.160Z,14.20
2024-05-09T08:58:54.076Z,14.65
2024-05-09T09:02:04.407Z,15.13
2024-05-09T09:05:22.902Z,15.56
2024-05-09T09:08:31.679Z,15.25
2024-05-09T09:11:42.423Z,15.82
2024-05-09T09:14:50.195Z,15.94
2024-05-09T09:18:02.248Z,15.94
2024-05-09T09:21:09.890Z,15.89
2024-05-09T09:24:18.950Z,16.31
2024-05-09T09:27:26.728Z,16.27
2024-05-09T09:30:37.413Z,15.94
2024-05-09T09:33:51.449Z,15.64
2024-05-09T09:37:08.426Z,16.11
2024-05-09T09:40:32.966Z,15.73
2024-05-09T09:43:43.524Z,15.40
2024-05-09T09:46:50.082Z,15.55
2024-05-09T09:49:59.709Z,15.62
2024-05-09T09:53:09.986Z,15.74
2024-05-09T09:56:18.750Z,15.89
2024-05-09T09:59:25.733Z,15.96
2024-05-09T10:02:32.503Z,16.16
2024-05-09T10:05:42.165Z,16.19
2024-05-09T10:08:56.017Z,16.48
2024-05-09T10:12:25.871Z,16.35
2024-05-09T10:15:33.221Z,15.81
2024-05-09T10:18:44.722Z,15.70
2024-05-09T10:21:55.016Z,15.77
2024-05-09T10:25:10.745Z,15.41
2024-05-09T10:28:19.451Z,15.53
2024-05-09T10:31:26.858Z,15.45
2024-05-09T10:34:38.628Z,15.21
2024-05-09T10:37:48.587Z,15.63
2024-05-09T10:41:02.464Z,15.65
2024-05-09T10:44:21.020Z,16.09
2024-05-09T10:47:31.951Z,16.51
2024-05-09T10:50:46.854Z,16.78
2024-05-09T10:53:58.808Z,17.00
2024-05-09T10:57:10.468Z,16.92
2024-05-09T11:00:27.244Z,16.94
2024-05-09T11:03:39.498Z,16.89
2024-05-09T11:06:48.274Z,16.77
2024-05-09T11:09:59.780Z,16.52
2024-05-09T11:13:10.056Z,16.23
2024-05-09T11:16:26.763Z,16.26
2024-05-09T11:19:51.253Z,16.91
2024-05-09T11:22:59.059Z,17.06
2024-05-09T11:26:06.707Z,17.18
2024-05-09T11:29:41.799Z,17.05
2024-05-09T11:33:10.835Z,17.46
2024-05-09T11:36:21.134Z,17.24
2024-05-09T11:39:29.182Z,17.31
2024-05-09T11:42:38.799Z,17.60
2024-05-09T11:46:07.720Z,17.26
2024-05-09T11:49:22.515Z,17.44
2024-05-09T11:52:30.669Z,17.28
2024-05-09T11:55:39.191Z,17.75
2024-05-09T11:58:47.445Z,18.01
2024-05-09T12:01:56.828Z,18.14
2024-05-09T12:05:06.973Z,18.09
2024-05-09T12:08:14.443Z,17.89
2024-05-09T12:11:24.753Z,17.88
2024-05-09T12:14:31.514Z,17.81
2024-05-09T12:17:39.739Z,17.66
2024-05-09T12:20:54.900Z,18.05
2024-05-09T12:24:03.986Z,18.32
2024-05-09T12:27:16.471Z,18.36
2024-05-09T12:30:36.731Z,18.06
2024-05-09T12:33:47.280Z,18.35
2024-05-09T12:36:56.335Z,18.18
2024-05-09T12:40:06.704Z,18.35
2024-05-09T12:43:17.957Z,18.60
2024-05-09T12:46:26.952Z,18.53
2024-05-09T12:49:33.709Z,18.90
2024-05-09T12:52:40.783Z,19.11
2024-05-09T12:55:56.577Z,18.79
2024-05-09T12:59:10.996Z,18.97
2024-05-09T13:02:18.761Z,18.95
2024-05-09T13:05:28.835Z,18.82
2024-05-09T13:08:35.725Z,18.67
2024-05-09T13:11:46.064Z,18.86
2024-05-09T13:14:52.390Z,18.65
2024-05-09T13:18:03.198Z,18.73
2024-05-09T13:21:13.272Z,18.85
2024-05-09T13:24:20.760Z,18.75
2024-05-09T13:27:30.086Z,18.86
2024-05-09T13:30:42.002Z,18.81
2024-05-09T13:33:51.249Z,18.97
2024-05-09T13:36:58.299Z,19.25
2024-05-09T13:40:09.540Z,19.46
2024-05-09T13:43:23.191Z,19.51
2024-05-09T13:46:32.141Z,19.60
2024-05-09T13:49:41.184Z,19.15
2024-05-09T13:52:47.896Z,18.93
2024-05-09T13:55:56.430Z,19.27
2024-05-09T13:59:05.230Z,19.12
2024-05-09T14:02:16.109Z,18.99
2024-05-09T14:05:22.732Z,18.83
2024-05-09T14:08:31.095Z,19.13
2024-05-09T14:11:42.661Z,19.01
2024-05-09T14:14:50.845Z,19.00
2024-05-09T14:18:00.195Z,18.96
2024-05-09T14:21:11.249Z,19.04
2024-05-09T14:24:20.065Z,19.09
2024-05-09T14:27:26.384Z,19.32
2024-05-09T14:30:37.614Z,19.20
2024-05-09T14:33:48.995Z,19.56
2024-05-09T14:36:59.427Z,19.44
2024-05-09T14:40:25.979Z,19.36
2024-05-09T14:43:40.059Z,19.43
2024-05-09T14:46:52.232Z,19.57
2024-05-09T14:49:59.377Z,19.32
2024-05-09T14:53:08.449Z,19.34
2024-05-09T14:56:15.206Z,19.28
2024-05-09T14:59:23.587Z,19.32
2024-05-09T15:02:32.750Z,19.28
2024-05-09T15:05:42.853Z,19.24
2024-05-09T15:08:59.219Z,19.45
2024-05-09T15:12:10.249Z,19.44
2024-05-09T15:15:18.396Z,19.15
2024-05-09T15:18:25.062Z,19.09
2024-05-09T15:21:33.605Z,19.10
2024-05-09T15:24:42.835Z,19.15
2024-05-09T15:27:52.992Z,19.13
2024-05-09T15:31:05.528Z,18.98
2024-05-09T15:34:16.314Z,19.02
2024-05-09T15:37:24.654Z,18.98
2024-05-09T15:40:39.528Z,18.90
2024-05-09T15:43:47.942Z,19.02
2024-05-09T15:46:59.682Z,18.90
2024-05-09T15:50:14.487Z,19.04
2024-05-09T15:53:26.574Z,18.79
2024-05-09T15:56:34.028Z,18.66
2024-05-09T15:59:44.206Z,18.88
2024-05-09T16:02:50.439Z,18.75
2024-05-09T16:06:00.222Z,18.40
2024-05-09T16:09:16.076Z,18.41
2024-05-09T16:12:24.844Z,18.50
2024-05-09T16:15:32.180Z,18.48
2024-05-09T16:18:41.744Z,18.42
2024-05-09T16:21:49.798Z,18.34
2024-05-09T16:25:02.464Z,18.29
2024-05-09T16:28:13.470Z,18.19
2024-05-09T16:31:21.003Z,18.31
2024-05-09T16:34:29.014Z,18.31
2024-05-09T16:37:35.279Z,18.26
2024-05-09T16:40:42.977Z,18.14
2024-05-09T16:43:51.794Z,18.07
2024-05-09T16:47:04.997Z,17.96
2024-05-09T16:50:19.120Z,17.95
2024-05-09T16:53:30.696Z,17.76
2024-05-09T16:56:38.382Z,17.77
2024-05-09T16:59:46.382Z,17.63
2024-05-09T17:02:54.743Z,17.47
2024-05-09T17:06:10.499Z,17.41
2024-05-09T17:09:19.765Z,17.27
2024-05-09T17:12:27.053Z,17.22
2024-05-09T17:15:33.878Z,17.47
2024-05-09T17:18:42.402Z,17.55
2024-05-09T17:21:53.094Z,17.35
2024-05-09T17:25:00.490Z,17.07
2024-05-09T17:28:08.977Z,16.71
2024-05-09T17:31:16.703Z,16.38
2024-05-09T17:34:29.052Z,16.12
2024-05-09T17:37:36.235Z,15.95
2024-05-09T17:40:42.686Z,15.69
2024-05-09T17:43:50.741Z,15.52
2024-05-09T17:46:59.149Z,15.34
2024-05-09T17:50:11.794Z,15.20
2024-05-09T17:53:27.412Z,14.97
2024-05-09T17:56:42.898Z,14.84
2024-05-09T17:59:52.273Z,14.63
2024-05-09T18:02:59.309Z,14.47
2024-05-09T18:06:05.821Z,14.26
2024-05-09T18:09:16.033Z,14.15
2024-05-09T18:12:22.780Z,14.00
2024-05-09T18:15:29.953Z,13.85
2024-05-09T18:18:36.469Z,13.64
2024-05-09T18:21:48.306Z,13.48
2024-05-09T18:24:56.781Z,13.48
2024-05-09T18:28:03.742Z,13.33
2024-05-09T18:31:10.474Z,13.27
2024-05-09T18:34:20.361Z,13.23
2024-05-09T18:37:28.031Z,13.16
2024-05-09T18:40:40.167Z,13.02
2024-05-09T18:43:51.086Z,13.08
2024-05-09T18:47:01.186Z,13.04
2024-05-09T18:50:17.392Z,12.87
2024-05-09T18:53:31.362Z,12.76
2024-05-09T18:56:39.671Z,12.65
2024-05-09T18:59:49.890Z,12.57
2024-05-09T19:02:59.459Z,12.51
2024-05-09T19:06:07.229Z,12.51
2024-05-09T19:09:17.372Z,12.42
2024-05-09T19:12:24.899Z,12.42
2024-05-09T19:15:31.799Z,12.30
2024-05-09T19:18:40.382Z,12.25
2024-05-09T19:21:50.736Z,12.16
2024-05-09T19:24:58.814Z,12.08
2024-05-09T19:28:07.576Z,12.09
2024-05-09T19:31:17.494Z,12.04
2024-05-09T19:34:24.704Z,11.97
2024-05-09T19:37:31.880Z,11.88
2024-05-09T19:40:41.844Z,11.84
2024-05-09T19:43:53.122Z,11.81
2024-05-09T19:47:00.160Z,11.79
2024-05-09T19:50:13.974Z,11.72
2024-05-09T19:53:26.696Z,11.69
2024-05-09T19:56:32.868Z,11.65
2024-05-09T19:59:40.089Z,11.58
2024-05-09T20:02:46.763Z,11.51
2024-05-09T20:05:54.452Z,11.49
2024-05-09T20:09:03.221Z,11.43
2024-05-09T20:12:09.700Z,11.29
2024-05-09T20:15:19.006Z,11.27
2024-05-09T20:18:25.513Z,11.23
2024-05-09T20:21:35.217Z,11.15
2024-05-09T20:24:44.377Z,11.11
2024-05-09T20:27:52.588Z,11.10
2024-05-09T20:31:02.152Z,11.00
2024-05-09T20:34:10.071Z,11.00
2024-05-09T20:37:19.482Z,11.02
2024-05-09T20:40:32.503Z,11.09
2024-05-09T20:43:42.331Z,11.19
2024-05-09T20:46:49.567Z,11.33
2024-05-09T20:49:56.987Z,11.46
2024-05-09T20:53:03.208Z,11.35
2024-05-09T20:56:11.412Z,10.73
2024-05-09T20:59:20.856Z,10.60
2024-05-09T21:02:40.440Z,10.66
2024-05-09T21:05:47.438Z,10.66
2024-05-09T21:08:55.831Z,10.72
2024-05-09T21:12:02.188Z,10.63
2024-05-09T21:15:08.682Z,10.51
2024-05-09T21:18:16.602Z,10.43
2024-05-09T21:21:23.722Z,10.22
2024-05-09T21:24:30.850Z,10.30
2024-05-09T21:27:39.431Z,10.31
2024-05-09T21:30:46.901Z,10.34
2024-05-09T21:33:55.535Z,10.17
2024-05-09T21:37:02.477Z,10.03
2024-05-09T21:40:13.873Z,9.83
2024-05-09T21:43:29.582Z,9.77
2024-05-09T21:46:35.990Z,9.74
2024-05-09T21:49:43.258Z,9.57
2024-05-09T21:52:49.709Z,9.43
2024-05-09T21:55:57.094Z,9.43
2024-05-09T21:59:03.795Z,9.30
2024-05-09T22:02:12.982Z,9.17
2024-05-09T22:05:19.377Z,9.20
2024-05-09T22:08:27.656Z,9.21
2024-05-09T22:11:36.806Z,9.13
2024-05-09T22:14:45.786Z,8.97
2024-05-09T22:17:54.120Z,9.04
2024-05-09T22:21:02.006Z,9.01
2024-05-09T22:24:08.913Z,8.86
2024-05-09T22:27:17.058Z,8.90
2024-05-09T22:30:33.786Z,8.80
2024-05-09T22:33:47.154Z,8.76
2024-05-09T22:36:55.558Z,8.69
2024-05-09T22:40:05.513Z,8.75
2024-05-09T22:43:14.360Z,8.77
2024-05-09T22:46:22.102Z,8.71
2024-05-09T22:49:32.847Z,8.69
2024-05-09T22:52:44.777Z,8.57
2024-05-09T22:55:53.577Z,8.57
2024-05-09T22:59:00.781Z,8.52
2024-05-09T23:02:09.109Z,8.30
2024-05-09T23:05:16.125Z,8.21
2024-05-09T23:08:23.702Z,8.20
2024-05-09T23:11:31.315Z,8.04
2024-05-09T23:14:37.625Z,7.97
2024-05-09T23:17:46.417Z,8.05
2024-05-09T23:20:52.872Z,8.03
2024-05-09T23:24:00.617Z,8.09
2024-05-09T23:27:11.987Z,8.19
2024-05-09T23:30:29.241Z,8.27
2024-05-09T23:33:54.397Z,8.42
2024-05-09T23:37:03.674Z,8.46
2024-05-09T23:43:21.698Z,8.38
2024-05-09T23:46:30.624Z,8.29
2024-05-09T23:49:39.498Z,8.43
2024-05-09T23:52:47.543Z,8.51
2024-05-09T23:55:54.462Z,8.48
2024-05-09T23:59:00.594Z,8.47
